Time,TemperatureF,DewpointF,PressureIn,WindDirection,WindDirectionDegrees,WindSpeedMPH,WindSpeedGustMPH,Humidity,HourlyPrecipIn,Conditions,Clouds,dailyrainin,SoftwareType,DateUTC
2015-09-03 00:02:00,73.1,66.9,29.94,SW,215,0.8,1.2,81,0.00,CLR,FEW,0.00,WeatherDisplay:10.37,2015-09-03 05:02:00,
2015-09-03 00:07:00,73.1,67.3,29.94,SW,230,1.3,2.3,82,0.00,CLR,FEW,0.00,WeatherDisplay:10.37,2015-09-03 05:07:00,
2015-09-03 00:12:00,72.8,67.0,29.94,SW,219,1.2,2.3,82,0.00,CLR,FEW,0.00,WeatherDisplay:10.37,2015-09-03 05:12:00,
2015-09-03 00:17:00,72.6,66.8,29.94,SE,130,0.6,1.2,82,0.00,CLR,FEW,0.00,WeatherDisplay:10.37,2015-09-03 05:17:00,
2015-09-03 00:22:00,72.6,66.8,29.94,South,188,0.0,0.0,82,0.00,CLR,FEW,0.00,WeatherDisplay:10.37,2015-09-03 05:22:00,
2015-09-03 00:27:00,72.5,66.7,29.94,SW,233,0.3,2.7,82,0.00,CLR,FEW,0.00,WeatherDisplay:10.37,2015-09-03 05:27:00,
2015-09-03 00:32:00,72.2,66.4,29.94,SSW,196,0.0,0.0,82,0.00,CLR,FEW,0.00,WeatherDisplay:10.37,2015-09-03 05:32:00,
2015-09-03 00:37:00,72.0,66.6,29.93,SSW,196,0.0,0.0,83,0.00,CLR,FEW,0.00,WeatherDisplay:10.37,2015-09-03 05:37:00,
2015-09-03 00:42:00,71.8,66.4,29.93,SSW,196,0.0,0.0,83,0.00,CLR,FEW,0.00,WeatherDisplay:10.37,2015-09-03 05:42:00,
2015-09-03 00:52:00,71.7,66.6,29.93,SSW,196,0.0,0.0,84,0.00,CLR,FEW,0.00,WeatherDisplay:10.37,2015-09-03 05:52:00,
2015-09-03 00:57:00,71.6,66.5,29.93,SSW,196,0.0,0.0,84,0.00,CLR,FEW,0.00,WeatherDisplay:10.37,2015-09-03 05:57:00,
2015-09-03 01:02:00,71.5,66.4,29.93,SSW,196,0.0,0.0,84,0.00,CLR,FEW,0.00,WeatherDisplay:10.37,2015-09-03 06:02:00,
2015-09-03 01:07:00,71.3,66.2,29.93,SSW,196,0.0,0.0,84,0.00,CLR,FEW,0.00,WeatherDisplay:10.37,2015-09-03 06:07:00,
2015-09-03 01:12:00,71.3,66.2,29.93,SSW,196,0.0,0.0,84,0.00,CLR,FEW,0.00,WeatherDisplay:10.37,2015-09-03 06:12:00,
2015-09-03 01:17:00,71.1,66.4,29.92,SSW,196,0.0,0.0,85,0.00,CLR,FEW,0.00,WeatherDisplay:10.37,2015-09-03 06:17:00,
2015-09-03 01:22:00,71.0,66.3,29.92,SSW,196,0.0,0.0,85,0.00,CLR,FEW,0.00,WeatherDisplay:10.37,2015-09-03 06:22:00,
2015-09-03 01:27:00,70.7,66.0,29.92,WSW,251,0.0,0.0,85,0.00,CLR,FEW,0.00,WeatherDisplay:10.37,2015-09-03 06:27:00,
2015-09-03 01:32:00,70.6,65.9,29.92,WSW,251,0.0,0.0,85,0.00,CLR,FEW,0.00,WeatherDisplay:10.37,2015-09-03 06:32:00,
2015-09-03 01:37:00,70.4,65.7,29.92,WSW,251,0.0,0.0,85,0.00,CLR,FEW,0.00,WeatherDisplay:10.37,2015-09-03 06:37:00,
2015-09-03 01:42:00,70.2,65.5,29.91,WSW,251,0.0,0.0,85,0.00,CLR,FEW,0.00,WeatherDisplay:10.37,2015-09-03 06:42:00,
2015-09-03 01:47:00,70.0,65.3,29.91,WSW,251,0.0,0.0,85,0.00,CLR,FEW,0.00,WeatherDisplay:10.37,2015-09-03 06:47:00,
2015-09-03 01:53:00,69.7,65.0,29.92,WSW,251,0.0,0.0,85,0.00,CLR,FEW,0.00,WeatherDisplay:10.37,2015-09-03 06:53:00,
2015-09-03 01:58:00,69.6,64.9,29.92,WSW,251,0.0,0.0,85,0.00,CLR,FEW,0.00,WeatherDisplay:10.37,2015-09-03 06:58:00,
2015-09-03 02:03:00,69.5,64.8,29.92,WSW,251,0.0,0.0,85,0.00,CLR,FEW,0.00,WeatherDisplay:10.37,2015-09-03 07:03:00,
2015-09-03 02:08:00,69.4,64.7,29.92,WSW,251,0.0,0.0,85,0.00,CLR,FEW,0.00,WeatherDisplay:10.37,2015-09-03 07:08:00,
2015-09-03 02:13:00,69.3,64.9,29.92,WSW,251,0.0,0.0,86,0.00,CLR,FEW,0.00,WeatherDisplay:10.37,2015-09-03 07:13:00,
2015-09-03 02:18:00,69.0,64.6,29.92,WSW,251,0.0,0.0,86,0.00,CLR,FEW,0.00,WeatherDisplay:10.37,2015-09-03 07:18:00,
2015-09-03 02:23:00,68.8,64.4,29.92,WSW,251,0.0,0.0,86,0.00,CLR,FEW,0.00,WeatherDisplay:10.37,2015-09-03 07:23:00,
2015-09-03 02:28:00,68.9,64.5,29.92,WSW,251,0.0,0.0,86,0.00,CLR,FEW,0.00,WeatherDisplay:10.37,2015-09-03 07:28:00,
2015-09-03 02:33:00,68.7,64.3,29.92,WSW,251,0.0,0.0,86,0.00,CLR,FEW,0.00,WeatherDisplay:10.37,2015-09-03 07:33:00,
2015-09-03 02:38:00,68.5,64.1,29.92,WSW,251,0.0,0.0,86,0.00,CLR,FEW,0.00,WeatherDisplay:10.37,2015-09-03 07:38:00,
2015-09-03 02:43:00,68.4,64.0,29.92,WSW,251,0.0,0.0,86,0.00,CLR,FEW,0.00,WeatherDisplay:10.37,2015-09-03 07:43:00,
2015-09-03 02:48:00,68.3,63.9,29.92,WSW,251,0.0,0.0,86,0.00,CLR,FEW,0.00,WeatherDisplay:10.37,2015-09-03 07:48:00,
2015-09-03 02:53:00,68.3,63.9,29.92,WSW,251,0.0,0.0,86,0.00,CLR,FEW,0.00,WeatherDisplay:10.37,2015-09-03 07:53:00,
2015-09-03 02:58:00,68.3,64.3,29.92,WSW,251,0.0,0.0,87,0.00,CLR,FEW,0.00,WeatherDisplay:10.37,2015-09-03 07:58:00,
2015-09-03 03:03:00,68.2,64.2,29.92,WSW,251,0.0,0.0,87,0.00,CLR,FEW,0.00,WeatherDisplay:10.37,2015-09-03 08:03:00,
2015-09-03 03:08:00,68.2,64.2,29.92,WSW,251,0.0,0.0,87,0.00,CLR,FEW,0.00,WeatherDisplay:10.37,2015-09-03 08:08:00,
2015-09-03 03:13:00,68.2,64.2,29.92,WSW,251,0.0,0.0,87,0.00,CLR,FEW,0.00,WeatherDisplay:10.37,2015-09-03 08:13:00,
2015-09-03 03:18:00,68.1,64.1,29.92,WSW,251,0.0,0.0,87,0.00,CLR,FEW,0.00,WeatherDisplay:10.37,2015-09-03 08:18:00,
2015-09-03 03:23:00,68.2,64.5,29.92,WSW,251,0.0,0.0,88,0.00,CLR,FEW,0.00,WeatherDisplay:10.37,2015-09-03 08:23:00,
2015-09-03 03:28:00,68.1,64.4,29.92,WSW,251,0.0,0.0,88,0.00,CLR,FEW,0.00,WeatherDisplay:10.37,2015-09-03 08:28:00,
2015-09-03 03:33:00,68.0,64.3,29.92,WSW,251,0.0,0.0,88,0.00,CLR,FEW,0.00,WeatherDisplay:10.37,2015-09-03 08:33:00,
2015-09-03 03:38:00,67.9,64.2,29.92,WSW,251,0.0,0.0,88,0.00,CLR,FEW,0.00,WeatherDisplay:10.37,2015-09-03 08:38:00,
2015-09-03 03:43:00,67.8,64.1,29.92,WSW,251,0.0,0.0,88,0.00,CLR,FEW,0.00,WeatherDisplay:10.37,2015-09-03 08:43:00,
2015-09-03 03:48:00,67.8,64.1,29.92,WSW,251,0.0,0.0,88,0.00,CLR,FEW,0.00,WeatherDisplay:10.37,2015-09-03 08:48:00,
2015-09-03 03:53:00,67.7,64.0,29.92,WSW,251,0.0,0.0,88,0.00,CLR,FEW,0.00,WeatherDisplay:10.37,2015-09-03 08:53:00,
2015-09-03 03:58:00,67.6,63.9,29.92,WSW,251,0.0,0.0,88,0.00,CLR,FEW,0.00,WeatherDisplay:10.37,2015-09-03 08:58:00,
2015-09-03 04:03:00,67.5,63.8,29.92,WSW,251,0.0,0.0,88,0.00,CLR,FEW,0.00,WeatherDisplay:10.37,2015-09-03 09:03:00,
2015-09-03 04:08:00,67.4,63.7,29.92,WSW,251,0.0,0.0,88,0.00,CLR,FEW,0.00,WeatherDisplay:10.37,2015-09-03 09:08:00,
2015-09-03 04:13:00,67.3,63.6,29.92,WSW,251,0.0,0.0,88,0.00,CLR,FEW,0.00,WeatherDisplay:10.37,2015-09-03 09:13:00,
2015-09-03 04:18:00,67.2,63.5,29.92,WSW,251,0.0,0.0,88,0.00,CLR,FEW,0.00,WeatherDisplay:10.37,2015-09-03 09:18:00,
2015-09-03 04:23:00,67.1,63.4,29.92,WSW,251,0.0,0.0,88,0.00,CLR,FEW,0.00,WeatherDisplay:10.37,2015-09-03 09:23:00,
2015-09-03 04:28:00,67.0,63.3,29.92,WSW,251,0.0,0.0,88,0.00,CLR,FEW,0.00,WeatherDisplay:10.37,2015-09-03 09:28:00,
2015-09-03 04:33:00,67.0,63.3,29.92,WSW,251,0.0,0.0,88,0.00,CLR,FEW,0.00,WeatherDisplay:10.37,2015-09-03 09:33:00,
2015-09-03 04:38:00,66.9,63.2,29.92,WSW,251,0.0,0.0,88,0.00,CLR,FEW,0.00,WeatherDisplay:10.37,2015-09-03 09:38:00,
2015-09-03 04:43:00,66.7,63.0,29.91,WSW,251,0.0,0.0,88,0.00,CLR,FEW,0.00,WeatherDisplay:10.37,2015-09-03 09:43:00,
2015-09-03 04:48:00,66.7,63.0,29.91,WSW,251,0.0,0.0,88,0.00,CLR,FEW,0.00,WeatherDisplay:10.37,2015-09-03 09:48:00,
2015-09-03 04:53:00,66.4,62.7,29.91,WSW,251,0.0,0.0,88,0.00,CLR,FEW,0.00,WeatherDisplay:10.37,2015-09-03 09:53:00,
2015-09-03 04:58:00,66.3,62.6,29.91,WSW,251,0.0,0.0,88,0.00,CLR,FEW,0.00,WeatherDisplay:10.37,2015-09-03 09:58:00,
2015-09-03 05:03:00,66.2,62.5,29.91,WSW,251,0.0,0.0,88,0.00,CLR,FEW,0.00,WeatherDisplay:10.37,2015-09-03 10:03:00,
2015-09-03 05:08:00,66.1,62.4,29.91,WSW,251,0.0,0.0,88,0.00,CLR,FEW,0.00,WeatherDisplay:10.37,2015-09-03 10:08:00,
2015-09-03 05:13:00,66.1,62.4,29.92,WSW,251,0.0,0.0,88,0.00,CLR,FEW,0.00,WeatherDisplay:10.37,2015-09-03 10:13:00,
2015-09-03 05:18:00,66.0,62.7,29.92,WSW,251,0.0,0.0,89,0.00,CLR,FEW,0.00,WeatherDisplay:10.37,2015-09-03 10:18:00,
2015-09-03 05:23:00,65.9,62.6,29.92,WSW,251,0.0,0.0,89,0.00,CLR,FEW,0.00,WeatherDisplay:10.37,2015-09-03 10:23:00,
2015-09-03 05:28:00,65.9,62.6,29.92,WSW,251,0.0,0.0,89,0.00,CLR,FEW,0.00,WeatherDisplay:10.37,2015-09-03 10:28:00,
2015-09-03 05:33:00,65.8,62.5,29.92,WSW,251,0.0,0.0,89,0.00,CLR,FEW,0.00,WeatherDisplay:10.37,2015-09-03 10:33:00,
2015-09-03 05:38:00,65.8,62.5,29.92,WSW,251,0.0,0.0,89,0.00,CLR,FEW,0.00,WeatherDisplay:10.37,2015-09-03 10:38:00,
2015-09-03 05:43:00,65.8,62.5,29.92,WSW,251,0.0,0.0,89,0.00,CLR,FEW,0.00,WeatherDisplay:10.37,2015-09-03 10:43:00,
2015-09-03 05:48:00,65.8,62.5,29.91,WSW,251,0.0,0.0,89,0.00,CLR,FEW,0.00,WeatherDisplay:10.37,2015-09-03 10:48:00,
2015-09-03 05:53:00,65.8,62.5,29.92,WSW,251,0.0,0.0,89,0.00,CLR,FEW,0.00,WeatherDisplay:10.37,2015-09-03 10:53:00,
2015-09-03 05:58:00,65.6,62.3,29.91,WSW,251,0.0,0.0,89,0.00,CLR,FEW,0.00,WeatherDisplay:10.37,2015-09-03 10:58:00,
2015-09-03 06:03:00,65.6,62.3,29.91,WSW,251,0.0,0.0,89,0.00,CLR,FEW,0.00,WeatherDisplay:10.37,2015-09-03 11:03:00,
2015-09-03 06:08:00,65.5,62.2,29.92,WSW,251,0.0,0.0,89,0.00,CLR,FEW,0.00,WeatherDisplay:10.37,2015-09-03 11:08:00,
2015-09-03 06:13:00,65.6,62.6,29.92,WSW,251,0.0,0.0,90,0.00,CLR,FEW,0.00,WeatherDisplay:10.37,2015-09-03 11:13:00,
2015-09-03 06:18:00,65.5,62.2,29.92,WSW,251,0.0,0.0,89,0.00,CLR,FEW,0.00,WeatherDisplay:10.37,2015-09-03 11:18:00,
2015-09-03 06:23:00,65.4,62.4,29.92,WSW,251,0.0,0.0,90,0.00,CLR,FEW,0.00,WeatherDisplay:10.37,2015-09-03 11:23:00,
2015-09-03 06:28:00,65.3,62.3,29.92,WSW,251,0.0,0.0,90,0.00,CLR,FEW,0.00,WeatherDisplay:10.37,2015-09-03 11:28:00,
2015-09-03 06:33:00,65.3,62.3,29.92,WSW,251,0.0,0.0,90,0.00,CLR,FEW,0.00,WeatherDisplay:10.37,2015-09-03 11:33:00,
2015-09-03 06:38:00,65.2,62.2,29.92,WSW,251,0.0,0.0,90,0.00,CLR,FEW,0.00,WeatherDisplay:10.37,2015-09-03 11:38:00,
2015-09-03 06:43:00,65.2,62.2,29.93,WSW,251,0.0,0.0,90,0.00,CLR,FEW,0.00,WeatherDisplay:10.37,2015-09-03 11:43:00,
2015-09-03 06:48:00,65.1,62.1,29.93,WSW,251,0.0,0.0,90,0.00,CLR,FEW,0.00,WeatherDisplay:10.37,2015-09-03 11:48:00,
2015-09-03 06:53:00,65.1,62.1,29.93,WSW,251,0.0,0.0,90,0.00,CLR,FEW,0.00,WeatherDisplay:10.37,2015-09-03 11:53:00,
2015-09-03 06:58:00,65.3,62.3,29.93,WSW,251,0.0,0.0,90,0.00,CLR,FEW,0.00,WeatherDisplay:10.37,2015-09-03 11:58:00,
2015-09-03 07:03:00,65.3,62.3,29.93,WSW,251,0.0,0.0,90,0.00,CLR,FEW,0.00,WeatherDisplay:10.37,2015-09-03 12:03:00,
2015-09-03 07:08:00,65.5,62.5,29.93,WSW,251,0.0,0.0,90,0.00,CLR,FEW,0.00,WeatherDisplay:10.37,2015-09-03 12:08:00,
2015-09-03 07:13:00,65.9,63.2,29.93,North,360,2.6,3.2,91,0.00,CLR,FEW,0.00,WeatherDisplay:10.37,2015-09-03 12:13:00,
2015-09-03 07:18:00,66.4,63.7,29.93,NW,322,0.0,0.0,91,0.00,CLR,FEW,0.00,WeatherDisplay:10.37,2015-09-03 12:18:00,
2015-09-03 07:23:00,66.7,64.0,29.93,NW,322,0.0,0.0,91,0.00,CLR,FEW,0.00,WeatherDisplay:10.37,2015-09-03 12:23:00,
2015-09-03 07:28:00,67.0,64.6,29.93,NW,322,0.0,0.0,92,0.00,CLR,FEW,0.00,WeatherDisplay:10.37,2015-09-03 12:28:00,
2015-09-03 07:33:00,67.2,64.8,29.93,NW,322,0.0,0.0,92,0.00,CLR,FEW,0.00,WeatherDisplay:10.37,2015-09-03 12:33:00,
2015-09-03 07:38:00,67.4,65.0,29.93,NW,322,0.0,0.0,92,0.00,CLR,FEW,0.00,WeatherDisplay:10.37,2015-09-03 12:38:00,
2015-09-03 07:43:00,68.0,65.6,29.93,NW,322,0.0,0.0,92,0.00,CLR,FEW,0.00,WeatherDisplay:10.37,2015-09-03 12:43:00,
2015-09-03 07:48:00,68.2,65.8,29.93,NW,322,0.0,0.0,92,0.00,CLR,FEW,0.00,WeatherDisplay:10.37,2015-09-03 12:48:00,
2015-09-03 07:53:00,68.4,66.0,29.93,NW,322,0.0,0.0,92,0.00,CLR,FEW,0.00,WeatherDisplay:10.37,2015-09-03 12:53:00,
2015-09-03 07:58:00,68.7,66.3,29.93,NW,322,0.0,0.0,92,0.00,CLR,FEW,0.00,WeatherDisplay:10.37,2015-09-03 12:58:00,
2015-09-03 08:03:00,69.1,66.7,29.93,NW,322,0.0,0.0,92,0.00,CLR,FEW,0.00,WeatherDisplay:10.37,2015-09-03 13:03:00,
2015-09-03 08:08:00,69.4,67.0,29.93,NW,322,0.0,0.0,92,0.00,CLR,FEW,0.00,WeatherDisplay:10.37,2015-09-03 13:08:00,
2015-09-03 08:13:00,69.7,67.3,29.93,NW,322,0.0,0.0,92,0.00,CLR,FEW,0.00,WeatherDisplay:10.37,2015-09-03 13:13:00,
2015-09-03 08:18:00,70.0,67.6,29.93,NW,322,0.0,0.0,92,0.00,CLR,FEW,0.00,WeatherDisplay:10.37,2015-09-03 13:18:00,
2015-09-03 08:23:00,70.4,68.0,29.93,NW,322,0.0,0.0,92,0.00,CLR,FEW,0.00,WeatherDisplay:10.37,2015-09-03 13:23:00,
2015-09-03 08:28:00,70.8,68.4,29.93,NW,322,0.0,0.0,92,0.00,CLR,FEW,0.00,WeatherDisplay:10.37,2015-09-03 13:28:00,
2015-09-03 08:33:00,71.2,68.4,29.94,SW,233,0.0,2.3,91,0.00,CLR,FEW,0.00,WeatherDisplay:10.37,2015-09-03 13:33:00,
2015-09-03 08:38:00,71.6,68.8,29.94,West,278,3.6,4.0,91,0.00,CLR,FEW,0.00,WeatherDisplay:10.37,2015-09-03 13:38:00,
2015-09-03 08:43:00,71.9,68.8,29.94,SSW,213,0.8,3.5,90,0.00,CLR,FEW,0.00,WeatherDisplay:10.37,2015-09-03 13:43:00,
2015-09-03 08:48:00,72.4,69.3,29.94,SW,220,1.5,3.5,90,0.00,CLR,FEW,0.00,WeatherDisplay:10.37,2015-09-03 13:48:00,
2015-09-03 08:53:00,72.6,69.2,29.94,NW,305,1.1,2.7,89,0.00,CLR,FEW,0.00,WeatherDisplay:10.37,2015-09-03 13:53:00,
2015-09-03 08:58:00,73.1,69.3,29.94,SW,226,2.0,2.0,88,0.00,CLR,FEW,0.00,WeatherDisplay:10.37,2015-09-03 13:58:00,
2015-09-03 09:03:00,73.6,69.8,29.93,NW,313,1.0,4.6,88,0.00,CLR,FEW,0.00,WeatherDisplay:10.37,2015-09-03 14:03:00,
2015-09-03 09:08:00,73.9,69.8,29.93,West,277,0.9,2.7,87,0.00,CLR,FEW,0.00,WeatherDisplay:10.37,2015-09-03 14:08:00,
2015-09-03 09:13:00,74.2,69.7,29.93,SW,236,2.1,7.8,86,0.00,CLR,FEW,0.00,WeatherDisplay:10.37,2015-09-03 14:13:00,
2015-09-03 09:18:00,74.5,69.7,29.93,WSW,241,1.1,3.5,85,0.00,CLR,FEW,0.00,WeatherDisplay:10.37,2015-09-03 14:18:00,
2015-09-03 09:23:00,74.7,69.5,29.93,NNE,21,1.7,4.6,84,0.00,CLR,FEW,0.00,WeatherDisplay:10.37,2015-09-03 14:23:00,
2015-09-03 09:28:00,75.1,69.6,29.93,WNW,301,2.5,5.3,83,0.00,CLR,FEW,0.00,WeatherDisplay:10.37,2015-09-03 14:28:00,
2015-09-03 09:33:00,75.3,69.8,29.93,SSW,209,2.3,3.5,83,0.00,CLR,FEW,0.00,WeatherDisplay:10.37,2015-09-03 14:33:00,
2015-09-03 09:38:00,75.7,69.8,29.93,WNW,291,0.7,2.3,82,0.00,CLR,FEW,0.00,WeatherDisplay:10.37,2015-09-03 14:38:00,
2015-09-03 09:43:00,76.0,69.7,29.93,SSW,200,0.0,1.2,81,0.00,CLR,FEW,0.00,WeatherDisplay:10.37,2015-09-03 14:43:00,
2015-09-03 09:48:00,76.3,70.0,29.93,NW,308,2.4,4.6,81,0.00,CLR,FEW,0.00,WeatherDisplay:10.37,2015-09-03 14:48:00,
2015-09-03 09:53:00,76.5,69.9,29.93,NW,318,2.1,2.3,80,0.00,CLR,FEW,0.00,WeatherDisplay:10.37,2015-09-03 14:53:00,
2015-09-03 09:58:00,76.8,69.8,29.93,SW,222,3.3,4.6,79,0.00,CLR,FEW,0.00,WeatherDisplay:10.37,2015-09-03 14:58:00,
2015-09-03 10:03:00,77.0,70.0,29.93,WNW,298,0.5,2.3,79,0.00,CLR,FEW,0.00,WeatherDisplay:10.37,2015-09-03 15:03:00,
2015-09-03 10:08:00,77.2,70.2,29.93,WNW,295,3.5,5.8,79,0.00,CLR,FEW,0.00,WeatherDisplay:10.37,2015-09-03 15:08:00,
2015-09-03 10:13:00,77.4,70.0,29.93,SSW,193,1.9,4.6,78,0.00,CLR,FEW,0.00,WeatherDisplay:10.37,2015-09-03 15:13:00,
2015-09-03 10:18:00,77.5,69.7,29.93,West,261,0.0,1.2,77,0.00,CLR,FEW,0.00,WeatherDisplay:10.37,2015-09-03 15:18:00,
2015-09-03 10:23:00,77.9,70.1,29.93,NW,311,1.3,2.3,77,0.00,CLR,FEW,0.00,WeatherDisplay:10.37,2015-09-03 15:23:00,
2015-09-03 10:28:00,78.1,69.9,29.93,NNE,13,1.9,3.5,76,0.00,CLR,FEW,0.00,WeatherDisplay:10.37,2015-09-03 15:28:00,
2015-09-03 10:33:00,78.3,70.1,29.93,North,8,1.8,3.5,76,0.00,CLR,FEW,0.00,WeatherDisplay:10.37,2015-09-03 15:33:00,
2015-09-03 10:38:00,78.5,70.3,29.93,NNE,16,2.8,4.6,76,0.00,CLR,FEW,0.00,WeatherDisplay:10.37,2015-09-03 15:38:00,
2015-09-03 10:43:00,78.9,70.7,29.93,NW,308,1.1,2.3,76,0.00,CLR,FEW,0.00,WeatherDisplay:10.37,2015-09-03 15:43:00,
2015-09-03 10:48:00,79.0,70.4,29.93,North,10,1.9,3.5,75,0.00,CLR,FEW,0.00,WeatherDisplay:10.37,2015-09-03 15:48:00,
2015-09-03 10:53:00,79.2,70.6,29.93,WSW,258,3.5,5.8,75,0.00,CLR,FEW,0.00,WeatherDisplay:10.37,2015-09-03 15:53:00,